Airfield :
LOGIN :

Register | Disclaimer

   EN    FR    IT 

 










Legend :    VFR   Marginal VFR   IFR   Intensive IFR   Very Intensive IFR
Visi :
Ceiling :
>= 8 km
>= 3000ft
5 to 8 km
1000 to 3000 ft
1500m to 5 km
500 to 1000 ft
800 to 1500m
200 to 500 ft
< 800m
< 200 ft
Symbols :   Thunderstorms  Fog  Heavy snow  Heavy precipitations  Wind > 20 kt
SIGMETs :     Misc.  Thunderstorms  Icing  Turbulence  Mountain Waves  Volcanic Ashes







- Airport Elevation : 90 ft
- IATA code : NTE
- Download approach charts


LFRS - Nantes

CURRENT METAR :
  • 162030Z AUTO 25009KT 220V290 6000 -RA BKN008/// OVC024/// ///TCU 09/09 Q1010 TEMPO 30015G25KT 4000 SHRA BKN012 BKN020TCU SCT030CB

EXPIRED METARs :
  • 162000Z AUTO 23007KT 9999 SCT009/// BKN014/// BKN035/// ///CB 09/09 Q1010 TEMPO 30015G25KT 4000 SHRA
  • 161930Z AUTO 21010KT 9999 FEW007/// BKN012/// BKN019/// ///TCU 09/09 Q1010 TEMPO 30015G25KT 4000 SHRA BKN012 BKN020TCU SCT030CB
  • 161900Z AUTO 18007KT 7000 -RA BKN014/// OVC020/// ///TCU 08/08 Q1010 TEMPO 30015G25KT 4000 SHRA BKN012 BKN020TCU SCT030CB
  • 161830Z AUTO 18008KT 6000 -RA OVC011/// ///TCU 08/07 Q1010 TEMPO 32015G25KT 4000 SHRA BKN012 BKN020TCU SCT030CB
  • 161800Z AUTO 17008KT 9000 BKN015 OVC022 07/07 Q1010 TEMPO 32015G25KT 4000 SHRA BKN020TCU SCT030CB

TAF AMD TAF LFRS
Valid from the 16 at 18:00 until the 18 at 00:00 UTC


161841Z 1618/1724 20010KT 9999 BKN018
TEMPO 1618/1622 30015G25KT 4000 SHRA BKN012 BKN020TCU SCT030CB
BECMG 1620/1622 28008KT SCT020
TEMPO 1701/1712 27015G25KT 4000 -SHRA SCT020CB BKN030TCU
BECMG 1712/1715 36010KT
BECMG 1715/1718 SCT030
BECMG 1718/1721 33004KT
ATIS : +33 2 40 05 12 74
No reported NOTAMs for that airfield.



MET'MAP, your aeronautical weather chart ! - Copyright ORBIFLY December 2007 - Disclaimer

ORBIFLY MET'MAP TEAM :

Programming & Development : Alexandra Zaïnal
Concept & Development : Baudouin d'Aumeries
Co-Development & Prog : Marc-Olivier Méhu
Technical & hardware support : Manuel Goepfert

Contact : metmap@orbifly.com




SOURCES & CREDITS :

   NOAA